createdAt,value
2022-10-18T00:00:06.908Z,5.05
2022-10-18T00:02:34.334Z,4.80
2022-10-18T00:05:01.402Z,5.50
2022-10-18T00:07:28.062Z,4.88
2022-10-18T00:09:55.230Z,4.90
2022-10-18T00:12:21.767Z,5.10
2022-10-18T00:14:51.115Z,5.35
2022-10-18T00:17:18.207Z,4.78
2022-10-18T00:19:45.268Z,3.78
2022-10-18T00:22:12.322Z,4.38
2022-10-18T00:24:38.839Z,4.60
2022-10-18T00:27:05.786Z,4.47
2022-10-18T00:29:32.303Z,4.25
2022-10-18T00:31:59.271Z,4.75
2022-10-18T00:34:26.194Z,4.85
2022-10-18T00:36:53.161Z,4.82
2022-10-18T00:39:21.807Z,4.50
2022-10-18T00:41:49.447Z,3.70
2022-10-18T00:44:16.361Z,4.47
2022-10-18T00:46:48.888Z,4.75
2022-10-18T00:49:24.678Z,3.58
2022-10-18T00:52:04.851Z,4.03
2022-10-18T00:54:34.375Z,4.60
2022-10-18T00:57:01.992Z,4.10
2022-10-18T00:59:29.895Z,4.75
2022-10-18T01:01:56.927Z,4.28
2022-10-18T01:04:24.011Z,4.55
2022-10-18T01:07:21.378Z,5.22
2022-10-18T01:10:08.155Z,6.03
2022-10-18T01:12:59.319Z,5.63
2022-10-18T01:15:42.583Z,5.38
2022-10-18T01:18:24.656Z,5.70
2022-10-18T01:21:00.262Z,4.50
2022-10-18T01:23:45.302Z,5.00
2022-10-18T01:26:30.810Z,5.78
2022-10-18T01:29:15.562Z,5.80
2022-10-18T01:31:59.621Z,5.63
2022-10-18T01:34:30.373Z,5.45
2022-10-18T01:36:58.071Z,6.10
2022-10-18T01:39:34.715Z,6.25
2022-10-18T01:42:06.250Z,5.47
2022-10-18T01:44:33.931Z,6.43
2022-10-18T01:47:02.014Z,7.18
2022-10-18T01:49:28.939Z,6.53
2022-10-18T01:51:55.932Z,6.22
2022-10-18T01:54:33.683Z,7.10
2022-10-18T01:57:06.172Z,6.97
2022-10-18T01:59:48.210Z,6.88
2022-10-18T02:02:31.450Z,7.22
2022-10-18T02:05:33.573Z,8.40
2022-10-18T02:08:32.136Z,8.35
2022-10-18T02:11:10.354Z,7.97
2022-10-18T02:14:02.397Z,8.85
2022-10-18T02:16:37.698Z,7.80
2022-10-18T02:19:16.056Z,9.00
2022-10-18T02:21:45.847Z,10.18
2022-10-18T02:24:15.615Z,9.50
2022-10-18T02:26:42.359Z,9.32
2022-10-18T02:29:10.081Z,10.07
2022-10-18T02:31:44.318Z,10.02
2022-10-18T02:34:29.351Z,9.38
2022-10-18T02:37:00.767Z,8.07
2022-10-18T02:39:31.337Z,8.50
2022-10-18T02:41:58.934Z,7.93
2022-10-18T02:44:26.040Z,7.82
2022-10-18T02:46:53.135Z,8.32
2022-10-18T02:49:20.086Z,7.57
2022-10-18T02:51:46.595Z,8.25
2022-10-18T02:54:13.107Z,7.57
2022-10-18T02:56:40.038Z,8.07
2022-10-18T02:59:07.386Z,8.00
2022-10-18T03:01:38.911Z,8.85
2022-10-18T03:04:06.119Z,8.85
2022-10-18T03:06:33.262Z,8.55
2022-10-18T03:09:02.102Z,7.85
2022-10-18T03:11:29.064Z,7.50
2022-10-18T03:13:55.581Z,7.88
2022-10-18T03:16:22.573Z,8.60
2022-10-18T03:18:49.109Z,9.85
2022-10-18T03:21:16.051Z,8.93
2022-10-18T03:23:43.037Z,8.98
2022-10-18T03:26:10.080Z,8.45
2022-10-18T03:28:37.079Z,8.23
2022-10-18T03:31:04.795Z,8.23
2022-10-18T03:33:32.874Z,10.23
2022-10-18T03:35:59.716Z,8.55
2022-10-18T03:38:27.210Z,9.07
2022-10-18T03:40:54.259Z,9.38
2022-10-18T03:43:20.978Z,10.02
2022-10-18T03:45:47.976Z,9.50
2022-10-18T03:48:14.983Z,8.57
2022-10-18T03:50:43.159Z,8.82
2022-10-18T03:53:09.707Z,7.63
2022-10-18T03:55:37.291Z,7.78
2022-10-18T03:58:04.268Z,8.20
2022-10-18T04:00:30.910Z,8.20
2022-10-18T04:02:57.886Z,8.07
2022-10-18T04:05:26.835Z,7.63
2022-10-18T04:07:54.932Z,7.25
2022-10-18T04:10:21.664Z,8.40
2022-10-18T04:12:48.630Z,7.85
2022-10-18T04:15:15.205Z,8.05
2022-10-18T04:17:42.346Z,6.95
2022-10-18T04:20:09.295Z,8.45
2022-10-18T04:22:36.266Z,7.70
2022-10-18T04:25:02.871Z,7.65
2022-10-18T04:27:29.920Z,7.60
2022-10-18T04:29:57.066Z,7.88
2022-10-18T04:32:23.609Z,8.63
2022-10-18T04:34:50.569Z,8.00
2022-10-18T04:37:17.252Z,7.85
2022-10-18T04:39:49.912Z,7.22
2022-10-18T04:42:19.317Z,6.97
2022-10-18T04:44:46.317Z,6.43
2022-10-18T04:47:12.836Z,6.18
2022-10-18T04:49:39.965Z,6.63
2022-10-18T04:52:07.156Z,7.63
2022-10-18T04:54:33.683Z,7.57
2022-10-18T04:57:00.744Z,7.55
2022-10-18T04:59:27.305Z,7.53
2022-10-18T05:01:54.360Z,7.80
2022-10-18T05:04:20.974Z,7.82
2022-10-18T05:06:48.008Z,7.28
2022-10-18T05:09:14.562Z,6.90
2022-10-18T05:11:41.552Z,6.80
2022-10-18T05:14:10.479Z,7.40
2022-10-18T05:16:37.645Z,6.85
2022-10-18T05:19:05.601Z,7.28
2022-10-18T05:21:33.147Z,6.75
2022-10-18T05:23:59.793Z,6.80
2022-10-18T05:26:26.868Z,7.18
2022-10-18T05:28:53.996Z,7.20
2022-10-18T05:31:21.879Z,6.85
2022-10-18T05:33:48.806Z,7.22
2022-10-18T05:36:16.366Z,6.40
2022-10-18T05:38:43.929Z,6.07
2022-10-18T05:41:11.508Z,6.30
2022-10-18T05:43:38.587Z,6.40
2022-10-18T05:46:11.903Z,7.45
2022-10-18T05:48:41.979Z,6.93
2022-10-18T05:51:08.911Z,6.93
2022-10-18T05:53:37.545Z,7.93
2022-10-18T05:56:05.441Z,7.55
2022-10-18T05:58:32.627Z,7.50
2022-10-18T06:01:00.792Z,8.20
2022-10-18T06:03:28.193Z,7.82
2022-10-18T06:06:04.476Z,8.77
2022-10-18T06:08:31.553Z,10.13
2022-10-18T06:10:58.298Z,9.85
2022-10-18T06:13:25.055Z,9.63
2022-10-18T06:15:57.313Z,9.20
2022-10-18T06:18:23.968Z,8.10
2022-10-18T06:20:57.239Z,8.32
2022-10-18T06:23:23.835Z,8.93
2022-10-18T06:25:50.812Z,8.95
2022-10-18T06:28:17.327Z,9.02
2022-10-18T06:30:44.416Z,8.82
2022-10-18T06:33:12.350Z,9.57
2022-10-18T06:35:38.866Z,8.88
2022-10-18T06:38:06.617Z,9.75
2022-10-18T06:40:37.813Z,9.85
2022-10-18T06:43:20.662Z,8.73
2022-10-18T06:45:48.568Z,9.35
2022-10-18T06:48:15.511Z,9.02
2022-10-18T06:50:42.745Z,9.00
2022-10-18T06:53:09.994Z,9.40
2022-10-18T06:55:36.552Z,9.43
2022-10-18T06:58:03.185Z,8.75
2022-10-18T07:00:30.149Z,8.38
2022-10-18T07:02:58.151Z,9.05
2022-10-18T07:05:24.788Z,9.38
2022-10-18T07:07:54.303Z,9.00
2022-10-18T07:10:24.277Z,9.73
2022-10-18T07:12:53.445Z,8.43
2022-10-18T07:15:24.486Z,8.40
2022-10-18T07:17:51.132Z,8.27
2022-10-18T07:20:17.980Z,8.30
2022-10-18T07:22:44.938Z,7.63
2022-10-18T07:25:11.533Z,8.23
2022-10-18T07:27:42.740Z,7.63
2022-10-18T07:30:11.256Z,8.30
2022-10-18T07:32:37.809Z,9.05
2022-10-18T07:35:04.853Z,8.48
2022-10-18T07:37:32.257Z,8.50
2022-10-18T07:39:59.115Z,8.35
2022-10-18T07:42:26.127Z,8.68
2022-10-18T07:44:52.800Z,8.55
2022-10-18T07:47:19.750Z,9.75
2022-10-18T07:49:46.709Z,8.68
2022-10-18T07:52:13.252Z,7.95
2022-10-18T07:54:40.260Z,8.85
2022-10-18T07:57:07.273Z,9.10
2022-10-18T07:59:33.874Z,9.32
2022-10-18T08:02:00.553Z,10.73
2022-10-18T08:04:27.665Z,9.88
2022-10-18T08:06:54.619Z,9.25
2022-10-18T08:09:21.256Z,8.75
2022-10-18T08:11:48.210Z,8.23
2022-10-18T08:14:15.626Z,8.38
2022-10-18T08:16:42.364Z,9.13
2022-10-18T08:19:08.949Z,10.48
2022-10-18T08:21:35.591Z,9.48
2022-10-18T08:24:02.263Z,10.23
2022-10-18T08:26:29.296Z,10.55
2022-10-18T08:29:17.596Z,11.43
2022-10-18T08:31:42.878Z,10.52
2022-10-18T08:34:09.495Z,12.60
2022-10-18T08:36:36.836Z,15.75
2022-10-18T08:39:04.092Z,13.02
2022-10-18T08:42:11.726Z,12.57
2022-10-18T08:44:47.746Z,11.38
2022-10-18T08:47:35.820Z,14.48
2022-10-18T08:50:06.753Z,13.35
2022-10-18T08:52:55.336Z,12.93
2022-10-18T08:55:36.417Z,12.68
2022-10-18T08:58:24.348Z,12.68
2022-10-18T09:01:06.630Z,12.32
2022-10-18T09:03:52.617Z,13.52
2022-10-18T09:06:29.595Z,11.95
2022-10-18T09:09:02.478Z,11.07
2022-10-18T09:11:50.951Z,11.95
2022-10-18T09:14:45.528Z,11.10
2022-10-18T09:17:30.019Z,11.40
2022-10-18T09:20:15.615Z,9.85
2022-10-18T09:22:55.187Z,10.57
2022-10-18T09:25:46.175Z,8.95
2022-10-18T09:28:19.725Z,10.35
2022-10-18T09:31:08.059Z,10.38
2022-10-18T09:34:08.443Z,8.98
2022-10-18T09:36:38.607Z,9.20
2022-10-18T09:39:18.356Z,9.75
2022-10-18T09:41:57.936Z,9.43
2022-10-18T09:44:27.320Z,9.27
2022-10-18T09:47:14.552Z,9.40
2022-10-18T09:49:48.271Z,9.00
2022-10-18T09:52:25.152Z,10.82
2022-10-18T09:54:56.556Z,9.60
2022-10-18T09:57:45.125Z,10.82
2022-10-18T10:00:29.603Z,9.98
2022-10-18T10:02:56.348Z,9.85
2022-10-18T10:05:22.908Z,10.52
2022-10-18T10:07:49.869Z,9.32
2022-10-18T10:10:23.367Z,8.55
2022-10-18T10:13:05.671Z,10.25
2022-10-18T10:15:38.094Z,8.98
2022-10-18T10:18:21.583Z,9.48
2022-10-18T10:20:56.952Z,8.55
2022-10-18T10:23:30.462Z,8.13
2022-10-18T10:26:00.378Z,8.63
2022-10-18T10:28:30.348Z,8.07
2022-10-18T10:31:26.088Z,7.95
2022-10-18T10:34:15.049Z,8.50
2022-10-18T10:36:54.051Z,8.85
2022-10-18T10:39:23.212Z,9.25
2022-10-18T10:41:56.185Z,8.45
2022-10-18T10:44:24.872Z,9.48
2022-10-18T10:46:52.958Z,8.82
2022-10-18T10:49:40.702Z,7.85
2022-10-18T10:52:26.880Z,8.82
2022-10-18T10:55:05.768Z,9.00
2022-10-18T10:57:38.823Z,8.95
2022-10-18T11:00:06.440Z,7.88
2022-10-18T11:02:35.846Z,6.95
2022-10-18T11:05:25.310Z,6.90
2022-10-18T11:07:55.858Z,5.75
2022-10-18T11:10:27.998Z,6.13
2022-10-18T11:13:22.955Z,5.72
2022-10-18T11:16:04.452Z,4.82
2022-10-18T11:18:37.099Z,5.30
2022-10-18T11:21:19.942Z,4.15
2022-10-18T11:23:46.622Z,4.38
2022-10-18T11:26:20.978Z,4.47
2022-10-18T11:28:50.569Z,3.90
2022-10-18T11:31:54.693Z,3.58
2022-10-18T11:34:43.114Z,2.90
2022-10-18T11:37:39.660Z,3.20
2022-10-18T11:40:19.406Z,3.60
2022-10-18T11:43:07.948Z,3.72
2022-10-18T11:45:55.371Z,3.17
2022-10-18T11:48:47.283Z,3.28
2022-10-18T11:51:38.732Z,3.35
2022-10-18T11:54:33.849Z,2.85
2022-10-18T11:57:31.380Z,2.88
2022-10-18T12:00:20.906Z,2.63
2022-10-18T12:03:24.428Z,2.50
2022-10-18T12:05:54.318Z,2.60
2022-10-18T12:08:41.625Z,2.40
2022-10-18T12:11:22.915Z,2.80
2022-10-18T12:14:01.112Z,1.98
2022-10-18T12:16:50.415Z,1.95
2022-10-18T12:19:25.455Z,2.03
2022-10-18T12:21:57.086Z,2.13
2022-10-18T12:24:28.591Z,1.65
2022-10-18T12:27:00.287Z,1.83
2022-10-18T12:29:34.812Z,1.85
2022-10-18T12:32:07.854Z,1.40
2022-10-18T12:34:51.020Z,1.80
2022-10-18T12:37:56.498Z,1.50
2022-10-18T12:40:44.711Z,1.70
2022-10-18T12:43:21.748Z,1.60
2022-10-18T12:45:53.965Z,1.65
2022-10-18T12:48:32.008Z,1.60
2022-10-18T12:51:20.467Z,1.35
2022-10-18T12:54:08.631Z,1.65
2022-10-18T12:56:38.269Z,1.60
2022-10-18T12:59:28.631Z,1.70
2022-10-18T13:01:55.292Z,2.55
2022-10-18T13:04:27.875Z,1.38
2022-10-18T13:06:57.967Z,2.15
2022-10-18T13:09:26.856Z,1.95
2022-10-18T13:12:21.386Z,1.58
2022-10-18T13:15:07.066Z,2.63
2022-10-18T13:17:50.330Z,1.70
2022-10-18T13:20:28.520Z,2.40
2022-10-18T13:23:37.029Z,1.80
2022-10-18T13:26:28.407Z,2.13
2022-10-18T13:29:11.922Z,2.10
2022-10-18T13:31:42.225Z,2.08
2022-10-18T13:34:27.962Z,1.80
2022-10-18T13:37:10.182Z,1.92
2022-10-18T13:39:39.098Z,1.98
2022-10-18T13:42:14.843Z,2.47
2022-10-18T13:44:46.383Z,2.40
2022-10-18T13:47:15.698Z,2.63
2022-10-18T13:49:57.198Z,2.58
2022-10-18T13:53:00.095Z,2.28
2022-10-18T13:55:29.475Z,2.15
2022-10-18T13:58:21.793Z,2.60
2022-10-18T14:01:00.461Z,2.00
2022-10-18T14:03:58.988Z,1.83
2022-10-18T14:06:33.841Z,1.77
2022-10-18T14:09:25.423Z,2.00
2022-10-18T14:12:08.555Z,1.90
2022-10-18T14:14:43.012Z,1.80
2022-10-18T14:17:22.399Z,1.63
2022-10-18T14:20:16.307Z,3.50
2022-10-18T14:23:21.593Z,2.10
2022-10-18T14:25:48.788Z,1.88
2022-10-18T14:28:19.718Z,2.10
2022-10-18T14:31:09.211Z,1.40
2022-10-18T14:33:43.276Z,2.00
2022-10-18T14:36:19.133Z,1.90
2022-10-18T14:38:55.021Z,1.90
2022-10-18T14:41:21.655Z,2.17
2022-10-18T14:43:49.731Z,1.80
2022-10-18T14:46:27.229Z,1.75
2022-10-18T14:49:01.374Z,1.52
2022-10-18T14:51:32.684Z,1.63
2022-10-18T14:54:00.034Z,2.00
2022-10-18T14:56:31.091Z,1.95
2022-10-18T14:59:02.039Z,2.17
2022-10-18T15:01:32.409Z,1.80
2022-10-18T15:04:03.746Z,2.50
2022-10-18T15:06:32.809Z,2.80
2022-10-18T15:09:04.128Z,2.20
2022-10-18T15:11:32.147Z,2.20
2022-10-18T15:14:08.764Z,2.45
2022-10-18T15:16:38.770Z,2.30
2022-10-18T15:19:14.193Z,2.17
2022-10-18T15:22:08.005Z,2.97
2022-10-18T15:24:41.599Z,11.63
2022-10-18T15:27:22.461Z,5.00
2022-10-18T15:29:49.612Z,2.35
2022-10-18T15:32:21.922Z,1.98
2022-10-18T15:34:49.043Z,2.28
2022-10-18T15:37:33.060Z,2.83
2022-10-18T15:40:39.512Z,2.67
2022-10-18T15:43:26.075Z,2.03
2022-10-18T15:46:06.559Z,3.13
2022-10-18T15:48:39.438Z,2.08
2022-10-18T15:51:34.290Z,2.47
2022-10-18T15:54:00.840Z,1.85
2022-10-18T15:56:36.210Z,1.98
2022-10-18T15:59:22.033Z,2.22
2022-10-18T16:01:49.703Z,2.63
2022-10-18T16:04:27.019Z,2.42
2022-10-18T16:06:55.872Z,2.15
2022-10-18T16:09:25.329Z,3.97
2022-10-18T16:11:56.684Z,2.80
2022-10-18T16:14:25.936Z,3.00
2022-10-18T16:17:01.550Z,2.30
2022-10-18T16:19:28.901Z,2.72
2022-10-18T16:21:55.710Z,2.13
2022-10-18T16:24:23.587Z,1.85
2022-10-18T16:26:50.381Z,5.07
2022-10-18T16:29:24.797Z,3.95
2022-10-18T16:31:53.599Z,2.90
2022-10-18T16:34:20.640Z,4.35
2022-10-18T16:36:47.562Z,4.18
2022-10-18T16:39:19.855Z,4.55
2022-10-18T16:41:47.495Z,5.40
2022-10-18T16:44:15.516Z,2.92
2022-10-18T16:46:42.107Z,2.58
2022-10-18T16:49:24.252Z,2.17
2022-10-18T16:51:52.740Z,4.75
2022-10-18T16:54:19.998Z,4.63
2022-10-18T16:56:47.717Z,4.45
2022-10-18T16:59:30.459Z,3.38
2022-10-18T17:01:57.231Z,2.90
2022-10-18T17:04:23.846Z,2.88
2022-10-18T17:06:59.118Z,2.67
2022-10-18T17:09:25.802Z,2.63
2022-10-18T17:11:52.749Z,2.80
2022-10-18T17:14:19.316Z,3.40
2022-10-18T17:16:48.794Z,4.15
2022-10-18T17:19:20.866Z,3.13
2022-10-18T17:21:47.813Z,2.30
2022-10-18T17:24:14.372Z,3.10
2022-10-18T17:26:41.319Z,2.60
2022-10-18T17:29:08.369Z,2.97
2022-10-18T17:31:36.036Z,3.78
2022-10-18T17:34:02.974Z,4.03
2022-10-18T17:36:31.325Z,3.22
2022-10-18T17:38:58.143Z,2.83
2022-10-18T17:41:25.621Z,2.80
2022-10-18T17:43:52.725Z,3.78
2022-10-18T17:46:19.929Z,2.47
2022-10-18T17:48:47.476Z,2.00
2022-10-18T17:51:15.788Z,2.08
2022-10-18T17:53:42.947Z,1.83
2022-10-18T17:56:10.549Z,3.13
2022-10-18T17:58:37.864Z,4.45
2022-10-18T18:01:23.456Z,4.63
2022-10-18T18:03:51.079Z,3.83
2022-10-18T18:06:23.894Z,3.75
2022-10-18T18:08:50.722Z,2.60
2022-10-18T18:11:17.915Z,2.08
2022-10-18T18:13:45.205Z,1.85
2022-10-18T18:16:13.379Z,2.15
2022-10-18T18:18:40.506Z,2.08
2022-10-18T18:21:07.071Z,2.00
2022-10-18T18:23:34.044Z,5.47
2022-10-18T18:26:01.049Z,3.63
2022-10-18T18:28:27.674Z,3.15
2022-10-18T18:30:54.364Z,2.45
2022-10-18T18:33:20.928Z,2.85
2022-10-18T18:35:57.848Z,4.28
2022-10-18T18:38:25.826Z,3.22
2022-10-18T18:41:10.160Z,2.30
2022-10-18T18:43:38.559Z,2.60
2022-10-18T18:46:05.842Z,2.33
2022-10-18T18:48:34.007Z,3.90
2022-10-18T18:51:02.070Z,4.85
2022-10-18T18:53:29.802Z,3.20
2022-10-18T18:56:08.441Z,2.70
2022-10-18T18:58:36.720Z,2.22
2022-10-18T19:01:31.022Z,2.05
2022-10-18T19:03:59.354Z,1.65
2022-10-18T19:06:30.146Z,1.83
2022-10-18T19:09:01.202Z,1.50
2022-10-18T19:11:31.359Z,2.00
2022-10-18T19:13:58.368Z,1.48
2022-10-18T19:16:38.995Z,2.25
2022-10-18T19:19:10.700Z,2.22
2022-10-18T19:21:40.290Z,1.88
2022-10-18T19:24:07.913Z,1.65
2022-10-18T19:26:49.787Z,2.38
2022-10-18T19:29:29.141Z,1.70
2022-10-18T19:31:58.316Z,1.70
2022-10-18T19:34:26.976Z,1.95
2022-10-18T19:36:53.970Z,1.70
2022-10-18T19:39:22.159Z,1.63
2022-10-18T19:41:50.839Z,1.75
2022-10-18T19:44:21.347Z,1.83
2022-10-18T19:46:48.854Z,1.95
2022-10-18T19:49:16.720Z,1.80
2022-10-18T19:51:43.784Z,1.50
2022-10-18T19:54:11.953Z,1.50
2022-10-18T19:56:39.493Z,1.70
2022-10-18T19:59:06.483Z,1.70
2022-10-18T20:01:33.853Z,1.67
2022-10-18T20:04:00.622Z,1.52
2022-10-18T20:06:27.649Z,1.50
2022-10-18T20:08:54.206Z,1.63
2022-10-18T20:11:23.873Z,1.40
2022-10-18T20:13:50.557Z,1.25
2022-10-18T20:16:20.630Z,1.20
2022-10-18T20:18:49.448Z,1.58
2022-10-18T20:21:16.948Z,1.08
2022-10-18T20:23:44.668Z,1.10
2022-10-18T20:26:18.263Z,1.00
2022-10-18T20:28:49.240Z,1.38
2022-10-18T20:31:19.617Z,1.33
2022-10-18T20:33:47.751Z,1.13
2022-10-18T20:36:16.006Z,1.23
2022-10-18T20:38:44.266Z,1.15
2022-10-18T20:41:18.458Z,1.00
2022-10-18T20:43:49.609Z,1.20
2022-10-18T20:46:16.711Z,1.67
2022-10-18T20:48:43.224Z,1.30
2022-10-18T20:51:13.052Z,1.25
2022-10-18T20:53:40.202Z,1.20
2022-10-18T20:56:09.642Z,1.20
2022-10-18T20:58:37.616Z,1.33
2022-10-18T21:01:06.394Z,1.63
2022-10-18T21:03:33.327Z,1.58
2022-10-18T21:06:02.502Z,1.50
2022-10-18T21:08:29.765Z,1.40
2022-10-18T21:10:56.271Z,1.35
2022-10-18T21:13:23.187Z,1.25
2022-10-18T21:15:57.471Z,1.15
2022-10-18T21:18:28.951Z,1.38
2022-10-18T21:20:56.286Z,1.00
2022-10-18T21:23:22.847Z,1.30
2022-10-18T21:25:50.079Z,1.15
2022-10-18T21:28:17.157Z,1.23
2022-10-18T21:30:44.116Z,1.25
2022-10-18T21:33:10.647Z,0.98
2022-10-18T21:35:38.702Z,2.08
2022-10-18T21:38:05.809Z,1.20
2022-10-18T21:40:35.475Z,1.50
2022-10-18T21:43:02.439Z,1.13
2022-10-18T21:45:28.939Z,1.13
2022-10-18T21:47:55.858Z,1.00
2022-10-18T21:50:22.383Z,1.50
2022-10-18T21:52:49.447Z,1.30
2022-10-18T21:55:15.974Z,1.20
2022-10-18T21:57:42.622Z,1.42
2022-10-18T22:00:10.253Z,1.50
2022-10-18T22:02:36.787Z,1.25
2022-10-18T22:05:07.007Z,1.00
2022-10-18T22:07:36.871Z,1.52
2022-10-18T22:10:04.530Z,1.40
2022-10-18T22:12:31.115Z,1.80
2022-10-18T22:14:58.087Z,1.27
2022-10-18T22:17:24.703Z,1.25
2022-10-18T22:19:51.275Z,1.20
2022-10-18T22:22:18.202Z,1.20
2022-10-18T22:24:45.342Z,1.35
2022-10-18T22:27:11.871Z,1.08
2022-10-18T22:29:38.884Z,1.20
2022-10-18T22:32:05.499Z,1.60
2022-10-18T22:34:32.465Z,1.40
2022-10-18T22:36:58.988Z,1.60
2022-10-18T22:39:25.989Z,1.33
2022-10-18T22:41:55.666Z,1.40
2022-10-18T22:44:22.949Z,1.23
2022-10-18T22:46:49.520Z,1.40
2022-10-18T22:49:16.548Z,1.40
2022-10-18T22:51:43.290Z,1.48
2022-10-18T22:54:10.425Z,1.50
2022-10-18T22:56:37.416Z,1.40
2022-10-18T22:59:04.000Z,1.98
2022-10-18T23:01:31.130Z,1.50
2022-10-18T23:03:59.598Z,1.77
2022-10-18T23:06:32.223Z,1.60
2022-10-18T23:09:00.243Z,1.80
2022-10-18T23:11:28.293Z,1.63
2022-10-18T23:13:55.178Z,1.75
2022-10-18T23:16:22.243Z,1.60
2022-10-18T23:18:56.666Z,1.70
2022-10-18T23:21:25.247Z,1.30
2022-10-18T23:23:53.963Z,1.33
2022-10-18T23:26:23.298Z,2.05
2022-10-18T23:28:52.721Z,1.60
2022-10-18T23:31:28.711Z,1.60
2022-10-18T23:33:59.164Z,1.30
2022-10-18T23:36:26.539Z,1.40
2022-10-18T23:38:54.398Z,1.27
2022-10-18T23:41:20.930Z,1.17
2022-10-18T23:43:48.369Z,1.27
2022-10-18T23:46:16.923Z,1.23
2022-10-18T23:48:44.355Z,1.33
2022-10-18T23:51:11.345Z,1.15
2022-10-18T23:53:38.625Z,1.38
2022-10-18T23:56:08.747Z,1.33
2022-10-18T23:58:35.903Z,1.45
